createdAt,value
2019-04-22T00:00:00.859Z,8.44
2019-04-22T00:00:34.480Z,8.44
2019-04-22T00:00:59.565Z,8.38
2019-04-22T00:01:32.636Z,8.44
2019-04-22T00:02:02.276Z,8.44
2019-04-22T00:02:30.283Z,8.44
2019-04-22T00:03:06.473Z,8.38
2019-04-22T00:03:37.637Z,8.38
2019-04-22T00:04:06.591Z,8.38
2019-04-22T00:04:39.153Z,8.38
2019-04-22T00:05:11.367Z,8.38
2019-04-22T00:05:48.222Z,8.38
2019-04-22T00:06:17.630Z,8.38
2019-04-22T00:06:55.871Z,8.38
2019-04-22T00:07:21.975Z,8.44
2019-04-22T00:07:56.213Z,8.44
2019-04-22T00:08:24.059Z,8.5
2019-04-22T00:08:55.183Z,8.5
2019-04-22T00:09:23.703Z,8.44
2019-04-22T00:09:58.012Z,8.44
2019-04-22T00:10:53.821Z,8.38
2019-04-22T00:11:28.652Z,8.44
2019-04-22T00:11:58.736Z,8.44
2019-04-22T00:12:26.984Z,8.44
2019-04-22T00:12:46.731Z,8.5
2019-04-22T00:13:25.692Z,8.44
2019-04-22T00:13:56.532Z,8.44
2019-04-22T00:14:17.503Z,8.44
2019-04-22T00:14:46.166Z,8.38
2019-04-22T00:15:19.317Z,8.38
2019-04-22T00:15:47.066Z,8.38
2019-04-22T00:16:30.586Z,8.44
2019-04-22T00:16:58.312Z,8.44
2019-04-22T00:17:29.893Z,8.38
2019-04-22T00:17:59.806Z,8.38
2019-04-22T00:19:07.675Z,8.38
2019-04-22T00:19:28.797Z,8.38
2019-04-22T00:19:57.403Z,8.38
2019-04-22T00:20:22.223Z,8.38
2019-04-22T00:20:57.816Z,8.38
2019-04-22T00:21:31.553Z,8.38
2019-04-22T00:22:14.941Z,8.38
2019-04-22T00:22:50.363Z,8.38
2019-04-22T00:23:23.066Z,8.31
2019-04-22T00:23:57.700Z,8.31
2019-04-22T00:24:23.800Z,8.31
2019-04-22T00:24:59.324Z,8.31
2019-04-22T00:25:34.252Z,8.31
2019-04-22T00:25:55.161Z,8.31
2019-04-22T00:26:28.744Z,8.38
2019-04-22T00:26:55.798Z,8.38
2019-04-22T00:27:27.757Z,8.38
2019-04-22T00:27:54.735Z,8.31
2019-04-22T00:28:14.363Z,8.31
2019-04-22T00:28:57.859Z,8.31
2019-04-22T00:29:42.204Z,8.38
2019-04-22T00:30:07.094Z,8.38
2019-04-22T00:30:20.278Z,8.31
2019-04-22T00:30:53.583Z,8.25
2019-04-22T00:31:20.518Z,8.31
2019-04-22T00:31:45.403Z,8.31
2019-04-22T00:32:23.941Z,8.31
2019-04-22T00:32:49.077Z,8.31
2019-04-22T00:33:20.277Z,8.31
2019-04-22T00:33:51.547Z,8.31
2019-04-22T00:34:22.383Z,8.38
2019-04-22T00:34:48.010Z,8.38
2019-04-22T00:35:54.325Z,8.31
2019-04-22T00:36:21.527Z,8.38
2019-04-22T00:36:54.124Z,8.31
2019-04-22T00:37:49.073Z,8.31
2019-04-22T00:38:29.937Z,8.31
2019-04-22T00:38:58.025Z,8.31
2019-04-22T00:39:26.790Z,8.31
2019-04-22T00:39:51.131Z,8.31
2019-04-22T00:40:50.491Z,8.31
2019-04-22T00:41:28.401Z,8.38
2019-04-22T00:41:55.069Z,8.38
2019-04-22T00:42:20.693Z,8.38
2019-04-22T00:42:46.764Z,8.38
2019-04-22T00:43:24.064Z,8.44
2019-04-22T00:45:00.071Z,8.38
2019-04-22T00:45:26.579Z,8.38
2019-04-22T00:45:42.755Z,8.38
2019-04-22T00:46:24.936Z,8.38
2019-04-22T00:47:27.734Z,8.31
2019-04-22T00:47:50.103Z,8.31
2019-04-22T00:48:26.945Z,8.31
2019-04-22T00:49:35.406Z,8.25
2019-04-22T00:49:52.100Z,8.25
2019-04-22T00:50:12.113Z,8.25
2019-04-22T00:50:29.786Z,8.19
2019-04-22T00:51:22.318Z,8.25
2019-04-22T00:52:03.099Z,8.25
2019-04-22T00:52:27.920Z,8.25
2019-04-22T00:52:54.475Z,8.31
2019-04-22T00:53:29.463Z,8.31
2019-04-22T00:53:54.136Z,8.38
2019-04-22T00:54:27.819Z,8.31
2019-04-22T00:54:52.977Z,8.38
2019-04-22T00:55:24.395Z,8.44
2019-04-22T00:55:53.705Z,8.44
2019-04-22T00:56:21.792Z,8.44
2019-04-22T00:56:53.809Z,8.44
2019-04-22T00:57:27.637Z,8.38
2019-04-22T00:57:46.016Z,8.38
2019-04-22T00:58:23.884Z,8.38
2019-04-22T00:58:49.782Z,8.5
2019-04-22T00:59:22.982Z,8.56
2019-04-22T00:59:57.085Z,8.56
2019-04-22T01:00:17.466Z,8.63
2019-04-22T01:01:23.282Z,8.56
2019-04-22T01:02:00.226Z,8.5
2019-04-22T01:02:26.013Z,8.38
2019-04-22T01:03:01.461Z,8.38
2019-04-22T01:03:33.983Z,8.38
2019-04-22T01:04:34.421Z,8.38
2019-04-22T01:04:45.752Z,8.31
2019-04-22T01:05:27.118Z,8.31
2019-04-22T01:05:54.791Z,8.38
2019-04-22T01:06:25.348Z,8.38
2019-04-22T01:06:57.147Z,8.38
2019-04-22T01:07:23.518Z,8.31
2019-04-22T01:07:56.193Z,8.31
2019-04-22T01:08:30.060Z,8.31
2019-04-22T01:08:57.627Z,8.31
2019-04-22T01:09:23.158Z,8.31
2019-04-22T01:09:58.332Z,8.31
2019-04-22T01:10:25.011Z,8.31
2019-04-22T01:11:28.939Z,8.31
2019-04-22T01:11:52.224Z,8.25
2019-04-22T01:12:25.943Z,8.25
2019-04-22T01:12:56.583Z,8.31
2019-04-22T01:13:24.569Z,8.31
2019-04-22T01:13:55.092Z,8.31
2019-04-22T01:14:27.869Z,8.25
2019-04-22T01:14:53.626Z,8.19
2019-04-22T01:15:28.438Z,8.19
2019-04-22T01:15:57.011Z,8.19
2019-04-22T01:16:27.897Z,8.19
2019-04-22T01:16:48.354Z,8.13
2019-04-22T01:17:25.434Z,8.13
2019-04-22T01:17:50.622Z,8.06
2019-04-22T01:18:22.196Z,8.06
2019-04-22T01:18:53.385Z,8.06
2019-04-22T01:19:29.392Z,8.06
2019-04-22T01:19:55.844Z,8.06
2019-04-22T01:20:54.154Z,8.06
2019-04-22T01:21:28.629Z,8.06
2019-04-22T01:21:49.575Z,8.13
2019-04-22T01:22:15.877Z,8.06
2019-04-22T01:23:23.360Z,8
2019-04-22T01:23:51.739Z,8
2019-04-22T01:24:21.633Z,8
2019-04-22T01:24:44.406Z,7.94
2019-04-22T01:25:23.046Z,8
2019-04-22T01:25:49.187Z,8
2019-04-22T01:26:19.867Z,7.94
2019-04-22T01:26:48.873Z,7.94
2019-04-22T01:27:11.287Z,7.94
2019-04-22T01:27:48.485Z,7.94
2019-04-22T01:28:17.807Z,7.94
2019-04-22T01:28:45.767Z,7.94
2019-04-22T01:29:14.506Z,7.94
2019-04-22T01:29:46.224Z,7.94
2019-04-22T01:30:14.380Z,8
2019-04-22T01:30:40.447Z,8.06
2019-04-22T01:31:08.189Z,8
2019-04-22T01:31:35.083Z,8
2019-04-22T01:32:05.929Z,8.06
2019-04-22T01:32:38.212Z,8.13
2019-04-22T01:33:09.010Z,8.13
2019-04-22T01:33:37.160Z,8.06
2019-04-22T01:34:15.907Z,8.06
2019-04-22T01:34:45.546Z,8.06
2019-04-22T01:35:17.670Z,8.06
2019-04-22T01:35:42.655Z,8.06
2019-04-22T01:36:24.364Z,8
2019-04-22T01:36:52.698Z,8
2019-04-22T01:37:19.649Z,7.94
2019-04-22T01:37:48.152Z,7.94
2019-04-22T01:38:18.779Z,8
2019-04-22T01:38:58.037Z,7.94
2019-04-22T01:39:28.583Z,7.94
2019-04-22T01:39:56.741Z,8
2019-04-22T01:40:30.793Z,7.94
2019-04-22T01:40:59.587Z,7.87
2019-04-22T01:41:22.814Z,7.94
2019-04-22T01:41:59.586Z,7.94
2019-04-22T01:42:24.234Z,7.94
2019-04-22T01:43:01.661Z,7.87
2019-04-22T01:43:31.340Z,7.87
2019-04-22T01:44:05.467Z,7.87
2019-04-22T01:44:32.606Z,7.87
2019-04-22T01:44:56.543Z,7.87
2019-04-22T01:45:31.087Z,7.87
2019-04-22T01:46:00.554Z,7.81
2019-04-22T01:46:31.019Z,7.81
2019-04-22T01:46:56.378Z,7.81
2019-04-22T01:47:30.962Z,7.81
2019-04-22T01:47:54.753Z,7.81
2019-04-22T01:48:32.341Z,7.81
2019-04-22T01:48:59.290Z,7.81
2019-04-22T01:49:27.145Z,7.87
2019-04-22T01:49:58.943Z,7.81
2019-04-22T01:50:54.524Z,7.81
2019-04-22T01:51:40.446Z,7.75
2019-04-22T01:51:58.226Z,7.81
2019-04-22T01:52:28.992Z,7.81
2019-04-22T01:52:51.894Z,7.75
2019-04-22T01:53:19.160Z,7.75
2019-04-22T01:54:03.617Z,7.75
2019-04-22T01:54:34.805Z,7.75
2019-04-22T01:54:54.378Z,7.75
2019-04-22T01:55:30.673Z,7.75
2019-04-22T01:55:56.981Z,7.75
2019-04-22T01:57:53.159Z,7.69
2019-04-22T01:58:23.176Z,7.69
2019-04-22T01:58:49.222Z,7.69
2019-04-22T01:59:19.575Z,7.69
2019-04-22T01:59:55.973Z,7.69
2019-04-22T02:00:21.990Z,7.69
2019-04-22T02:00:59.067Z,7.69
2019-04-22T02:01:30.123Z,7.69
2019-04-22T02:01:49.826Z,7.69
2019-04-22T02:02:29.920Z,7.69
2019-04-22T02:02:57.126Z,7.62
2019-04-22T02:03:25.412Z,7.56
2019-04-22T02:04:00.725Z,7.62
2019-04-22T02:04:31.475Z,7.56
2019-04-22T02:04:59.283Z,7.56
2019-04-22T02:05:28.493Z,7.56
2019-04-22T02:05:50.266Z,7.56
2019-04-22T02:06:21.716Z,7.56
2019-04-22T02:07:28.985Z,7.56
2019-04-22T02:07:55.926Z,7.56
2019-04-22T02:08:37.717Z,7.56
2019-04-22T02:09:54.889Z,7.56
2019-04-22T02:10:34.421Z,7.5
2019-04-22T02:11:00.589Z,7.56
2019-04-22T02:11:31.955Z,7.56
2019-04-22T02:11:53.216Z,7.56
2019-04-22T02:12:59.804Z,7.56
2019-04-22T02:13:28.616Z,7.56
2019-04-22T02:14:32.824Z,7.62
2019-04-22T02:14:57.071Z,7.62
2019-04-22T02:15:30.857Z,7.62
2019-04-22T02:16:33.529Z,7.62
2019-04-22T02:17:01.124Z,7.62
2019-04-22T02:17:31.368Z,7.62
2019-04-22T02:18:01.059Z,7.62
2019-04-22T02:18:31.422Z,7.62
2019-04-22T02:18:51.946Z,7.62
2019-04-22T02:19:22.350Z,7.62
2019-04-22T02:20:30.968Z,7.62
2019-04-22T02:20:54.314Z,7.62
2019-04-22T02:21:19.987Z,7.69
2019-04-22T02:22:41.461Z,7.62
2019-04-22T02:23:15.097Z,7.62
2019-04-22T02:23:46.733Z,7.62
2019-04-22T02:24:01.705Z,7.62
2019-04-22T02:24:33.113Z,7.62
2019-04-22T02:24:58.396Z,7.62
2019-04-22T02:25:32.087Z,7.69
2019-04-22T02:26:00.514Z,7.69
2019-04-22T02:26:25.175Z,7.69
2019-04-22T02:26:46.260Z,7.62
2019-04-22T02:27:31.930Z,7.62
2019-04-22T02:28:36.312Z,7.62
2019-04-22T02:28:53.520Z,7.62
2019-04-22T02:29:21.747Z,7.56
2019-04-22T02:29:57.513Z,7.56
2019-04-22T02:30:33.073Z,7.56
2019-04-22T02:31:19.599Z,7.56
2019-04-22T02:31:35.495Z,7.5
2019-04-22T02:32:09.723Z,7.44
2019-04-22T02:34:00.571Z,7.5
2019-04-22T02:34:21.135Z,7.44
2019-04-22T02:34:39.392Z,7.44
2019-04-22T02:34:56.687Z,7.44
2019-04-22T02:35:47.911Z,7.37
2019-04-22T02:36:16.513Z,7.37
2019-04-22T02:36:40.796Z,7.37
2019-04-22T02:37:27.543Z,7.44
2019-04-22T02:38:06.987Z,7.5
2019-04-22T02:38:51.071Z,7.5
2019-04-22T02:39:03.769Z,7.5
2019-04-22T02:39:31.275Z,7.5
2019-04-22T02:40:44.073Z,7.5
2019-04-22T02:41:30.419Z,7.44
2019-04-22T02:42:23.207Z,7.37
2019-04-22T02:43:10.991Z,7.31
2019-04-22T02:43:33.515Z,7.37
2019-04-22T02:44:07.990Z,7.31
2019-04-22T02:44:35.276Z,7.37
2019-04-22T02:44:57.459Z,7.31
2019-04-22T02:45:25.297Z,7.31
2019-04-22T02:46:21.885Z,7.37
2019-04-22T02:46:52.215Z,7.37
2019-04-22T02:47:26.602Z,7.44
2019-04-22T02:48:52.678Z,7.44
2019-04-22T02:49:10.710Z,7.44
2019-04-22T02:50:27.856Z,7.44
2019-04-22T02:51:09.915Z,7.5
2019-04-22T02:51:59.445Z,7.44
2019-04-22T02:52:36.645Z,7.37
2019-04-22T02:52:49.534Z,7.37
2019-04-22T02:54:54.350Z,7.37
2019-04-22T02:55:22.554Z,7.37
2019-04-22T02:58:03.342Z,7.31
2019-04-22T02:58:46.533Z,7.31
2019-04-22T02:59:09.385Z,7.31
2019-04-22T02:59:30.686Z,7.31
2019-04-22T03:00:37.036Z,7.25
2019-04-22T03:00:56.110Z,7.25
2019-04-22T03:02:02.830Z,7.19
2019-04-22T03:02:27.997Z,7.19
2019-04-22T03:03:20.276Z,7.12
2019-04-22T03:04:27.955Z,7.12
2019-04-22T03:06:15.217Z,7.12
2019-04-22T03:06:34.481Z,7.19
2019-04-22T03:06:54.942Z,7.19
2019-04-22T03:07:31.532Z,7.19
2019-04-22T03:07:57.726Z,7.25
2019-04-22T03:08:39.209Z,7.19
2019-04-22T03:08:53.566Z,7.12
2019-04-22T03:09:27.893Z,7.12
2019-04-22T03:10:36.927Z,7
2019-04-22T03:11:12.326Z,7
2019-04-22T03:13:46.636Z,7
2019-04-22T03:14:33.569Z,7
2019-04-22T03:14:59.246Z,7
2019-04-22T03:15:29.587Z,7
2019-04-22T03:15:58.977Z,7
2019-04-22T03:17:38.119Z,6.94
2019-04-22T03:18:00.417Z,6.94
2019-04-22T03:19:13.560Z,6.87
2019-04-22T03:19:33.767Z,6.87
2019-04-22T03:20:03.799Z,6.87
2019-04-22T03:20:33.253Z,6.87
2019-04-22T03:21:01.963Z,6.87
2019-04-22T03:21:23.677Z,6.81
2019-04-22T03:22:34.109Z,6.81
2019-04-22T03:23:15.833Z,6.81
2019-04-22T03:23:45.065Z,6.81
2019-04-22T03:24:15.359Z,6.81
2019-04-22T03:24:33.032Z,6.81
2019-04-22T03:25:31.638Z,6.87
2019-04-22T03:26:58.098Z,6.94
2019-04-22T03:27:34.620Z,6.94
2019-04-22T03:27:58.078Z,7
2019-04-22T03:29:02.510Z,6.94
2019-04-22T03:29:43.846Z,6.94
2019-04-22T03:31:18.266Z,6.81
2019-04-22T03:32:30.641Z,6.81
2019-04-22T03:33:39.717Z,6.75
2019-04-22T03:36:17.896Z,6.75
2019-04-22T03:37:03.444Z,6.69
2019-04-22T03:37:20.230Z,6.62
2019-04-22T03:38:06.982Z,6.69
2019-04-22T03:39:27.209Z,6.62
2019-04-22T03:41:56.969Z,6.87
2019-04-22T03:42:31.618Z,6.94
2019-04-22T03:43:13.059Z,6.94
2019-04-22T03:44:18.512Z,7
2019-04-22T03:44:38.169Z,7.06
2019-04-22T03:45:19.050Z,7.25
2019-04-22T03:45:50.988Z,7.31
2019-04-22T03:46:41.589Z,7.37
2019-04-22T03:47:15.824Z,7.44
2019-04-22T03:47:40.972Z,7.5
2019-04-22T03:47:55.717Z,7.44
2019-04-22T03:48:45.026Z,7.5
2019-04-22T03:50:15.504Z,7.44
2019-04-22T03:50:27.679Z,7.37
2019-04-22T03:51:15.897Z,7.31
2019-04-22T03:51:45.449Z,7.37
2019-04-22T03:52:10.468Z,7.44
2019-04-22T03:52:19.950Z,7.37
2019-04-22T03:53:08.862Z,7.5
2019-04-22T03:56:18.190Z,7.25
2019-04-22T03:56:55.815Z,7.31
2019-04-22T03:57:24.414Z,7.31
2019-04-22T03:57:45.553Z,7.25
2019-04-22T03:57:56.844Z,7.25
2019-04-22T03:58:36.575Z,7.31
2019-04-22T03:59:15.967Z,7.19
2019-04-22T03:59:41.023Z,7.19
2019-04-22T03:59:56.411Z,7.19
2019-04-22T04:01:43.574Z,7.06
2019-04-22T04:02:12.870Z,7.06
2019-04-22T04:03:06.791Z,7.06
2019-04-22T04:03:39.119Z,7.19
2019-04-22T04:04:36.651Z,7.19
2019-04-22T04:05:09.272Z,7.25
2019-04-22T04:05:45.164Z,7.25
2019-04-22T04:06:04.616Z,7.25
2019-04-22T04:08:26.194Z,7.19
2019-04-22T04:09:08.753Z,7.19
2019-04-22T04:09:38.288Z,7.19
2019-04-22T04:10:39.448Z,7.19
2019-04-22T04:10:57.362Z,7.12
2019-04-22T04:11:51.505Z,7.06
2019-04-22T04:12:12.086Z,7.06
2019-04-22T04:12:46.857Z,7.06
2019-04-22T04:14:45.851Z,7
2019-04-22T04:15:13.229Z,7
2019-04-22T04:15:33.842Z,7
2019-04-22T04:16:02.693Z,7
2019-04-22T04:16:29.662Z,6.94
2019-04-22T04:17:08.504Z,7
2019-04-22T04:17:59.099Z,6.94
2019-04-22T04:18:46.365Z,6.94
2019-04-22T04:19:43.023Z,6.94
2019-04-22T04:20:28.287Z,6.94
2019-04-22T04:21:20.393Z,6.94
2019-04-22T04:21:40.528Z,6.94
2019-04-22T04:21:57.039Z,6.87
2019-04-22T04:22:51.972Z,6.87
2019-04-22T04:23:16.449Z,6.87
2019-04-22T04:23:45.663Z,6.87
2019-04-22T04:24:10.753Z,6.87
2019-04-22T04:25:05.130Z,6.87
2019-04-22T04:25:51.409Z,6.87
2019-04-22T04:26:35.008Z,6.87
2019-04-22T04:27:06.422Z,6.81
2019-04-22T04:27:53.238Z,6.75
2019-04-22T04:28:29.097Z,6.75
2019-04-22T04:29:25.070Z,6.75
2019-04-22T04:31:16.847Z,6.69
2019-04-22T04:32:04.981Z,6.75
2019-04-22T04:32:33.879Z,6.75
2019-04-22T04:32:56.488Z,6.75
2019-04-22T04:33:37.822Z,6.75
2019-04-22T04:34:42.733Z,6.81
2019-04-22T04:35:21.031Z,6.81
2019-04-22T04:36:05.936Z,6.87
2019-04-22T04:36:41.423Z,6.81
2019-04-22T04:37:06.516Z,6.81
2019-04-22T04:37:44.385Z,6.87
2019-04-22T04:37:58.418Z,6.87
2019-04-22T04:39:04.936Z,6.87
2019-04-22T04:40:20.510Z,6.94
2019-04-22T04:41:15.086Z,6.94
2019-04-22T04:41:33.479Z,7
2019-04-22T04:46:13.611Z,7.06
2019-04-22T04:46:44.244Z,7.06
2019-04-22T04:47:11.171Z,7.06
2019-04-22T04:48:11.042Z,7.06
2019-04-22T04:48:50.913Z,7.06
2019-04-22T04:49:17.498Z,7.06
2019-04-22T04:49:43.321Z,7.06
2019-04-22T04:50:37.662Z,7.06
2019-04-22T04:51:15.612Z,7.06
2019-04-22T04:51:37.307Z,7.06
2019-04-22T04:52:15.972Z,7.12
2019-04-22T04:52:50.013Z,7.19
2019-04-22T04:53:31.454Z,7.19
2019-04-22T04:54:21.139Z,7.19
2019-04-22T04:54:30.097Z,7.19
2019-04-22T04:55:32.998Z,7.31
2019-04-22T04:57:04.621Z,7.37
2019-04-22T04:57:54.131Z,7.37
2019-04-22T04:58:33.680Z,7.44
2019-04-22T05:00:05.647Z,7.44
2019-04-22T05:00:21.389Z,7.5
2019-04-22T05:00:47.864Z,7.5
2019-04-22T05:01:10.355Z,7.5
2019-04-22T05:01:44.314Z,7.5
2019-04-22T05:02:09.163Z,7.5
2019-04-22T05:02:57.975Z,7.56
2019-04-22T05:03:48.470Z,7.56
2019-04-22T05:04:13.194Z,7.62
2019-04-22T05:04:56.053Z,7.62
2019-04-22T05:05:11.415Z,7.62
2019-04-22T05:05:31.237Z,7.62
2019-04-22T05:06:32.872Z,7.69
2019-04-22T05:07:17.591Z,7.75
2019-04-22T05:08:11.767Z,7.81
2019-04-22T05:09:00.617Z,7.87
2019-04-22T05:09:14.332Z,7.87
2019-04-22T05:09:23.653Z,7.87
2019-04-22T05:09:58.956Z,7.87
2019-04-22T05:10:49.083Z,7.94
2019-04-22T05:11:13.337Z,8
2019-04-22T05:11:34.727Z,8
2019-04-22T05:12:11.576Z,8
2019-04-22T05:12:51.724Z,8
2019-04-22T05:13:10.009Z,8.06
2019-04-22T05:14:23.889Z,8.13
2019-04-22T05:15:10.741Z,8.19
2019-04-22T05:17:12.481Z,8.38
2019-04-22T05:17:34.699Z,8.38
2019-04-22T05:18:12.158Z,8.44
2019-04-22T05:18:28.773Z,8.44
2019-04-22T05:19:07.260Z,8.5
2019-04-22T05:19:30.543Z,8.5
2019-04-22T05:21:29.321Z,8.63
2019-04-22T05:22:03.914Z,8.63
2019-04-22T05:22:27.807Z,8.63
2019-04-22T05:22:57.474Z,8.69
2019-04-22T05:23:37.029Z,8.75
2019-04-22T05:24:42.024Z,8.81
2019-04-22T05:24:57.976Z,8.81
2019-04-22T05:25:26.385Z,8.88
2019-04-22T05:26:03.842Z,8.94
2019-04-22T05:26:38.966Z,9
2019-04-22T05:27:12.753Z,9.06
2019-04-22T05:27:39.325Z,9.13
2019-04-22T05:28:23.519Z,9.19
2019-04-22T05:28:57.151Z,9.31
2019-04-22T05:29:46.226Z,9.38
2019-04-22T05:30:07.218Z,9.44
2019-04-22T05:30:53.307Z,9.38
2019-04-22T05:31:07.939Z,9.38
2019-04-22T05:31:37.016Z,9.31
2019-04-22T05:32:01.049Z,9.31
2019-04-22T05:33:01.254Z,9.31
2019-04-22T05:33:34.658Z,9.31
2019-04-22T05:34:33.270Z,9.38
2019-04-22T05:35:06.353Z,9.44
2019-04-22T05:36:06.844Z,9.38
2019-04-22T05:36:32.596Z,9.38
2019-04-22T05:36:52.311Z,9.38
2019-04-22T05:37:32.631Z,9.44
2019-04-22T05:38:09.513Z,9.44
2019-04-22T05:38:39.696Z,9.5
2019-04-22T05:39:35.486Z,9.5
2019-04-22T05:40:08.305Z,9.5
2019-04-22T05:40:27.869Z,9.5
2019-04-22T05:41:02.091Z,9.56
2019-04-22T05:41:34.855Z,9.56
2019-04-22T05:42:28.235Z,9.63
2019-04-22T05:43:33.901Z,9.69
2019-04-22T05:44:02.628Z,9.69
2019-04-22T05:44:34.170Z,9.63
2019-04-22T05:44:54.736Z,9.69
2019-04-22T05:45:31.015Z,9.75
2019-04-22T05:46:02.370Z,9.69
2019-04-22T05:46:34.100Z,9.69
2019-04-22T05:46:52.524Z,9.75
2019-04-22T05:47:31.807Z,9.75
2019-04-22T05:48:00.762Z,9.75
2019-04-22T05:48:37.883Z,9.75
2019-04-22T05:49:05.739Z,9.75
2019-04-22T05:49:23.327Z,9.81
2019-04-22T05:50:01.903Z,9.81
2019-04-22T05:51:00.891Z,9.88
2019-04-22T05:51:54.416Z,9.88
2019-04-22T05:52:31.365Z,9.88
2019-04-22T05:53:32.221Z,9.94
2019-04-22T05:54:07.348Z,9.94
2019-04-22T05:54:32.548Z,9.88
2019-04-22T05:55:08.011Z,9.94
2019-04-22T05:55:53.496Z,10
2019-04-22T05:57:00.071Z,10
2019-04-22T05:57:30.861Z,10
2019-04-22T05:58:01.224Z,10
2019-04-22T05:58:37.937Z,10
2019-04-22T05:59:37.333Z,10.06
2019-04-22T06:00:06.126Z,10.06
2019-04-22T06:01:42.940Z,10.13
2019-04-22T06:01:56.276Z,10.13
2019-04-22T06:02:47.213Z,10.19
2019-04-22T06:03:01.399Z,10.19
2019-04-22T06:03:37.480Z,10.19
2019-04-22T06:04:05.137Z,10.25
2019-04-22T06:04:21.364Z,10.25
2019-04-22T06:05:03.546Z,10.31
2019-04-22T06:05:34.171Z,10.31
2019-04-22T06:06:28.593Z,10.44
2019-04-22T06:06:59.635Z,10.5
2019-04-22T06:08:03.505Z,10.69
2019-04-22T06:08:28.946Z,10.75
2019-04-22T06:09:03.796Z,10.75
2019-04-22T06:09:28.249Z,10.81
2019-04-22T06:10:09.578Z,10.81
2019-04-22T06:10:38.817Z,10.81
2019-04-22T06:11:07.953Z,10.81
2019-04-22T06:11:28.995Z,10.88
2019-04-22T06:11:58.461Z,10.88
2019-04-22T06:12:25.845Z,10.88
2019-04-22T06:13:00.618Z,10.88
2019-04-22T06:13:27.460Z,10.94
2019-04-22T06:14:00.756Z,10.94
2019-04-22T06:14:30.622Z,10.94
2019-04-22T06:15:03.275Z,10.94
2019-04-22T06:15:23.208Z,10.94
2019-04-22T06:16:08.780Z,10.94
2019-04-22T06:16:36.870Z,10.94
2019-04-22T06:17:03.454Z,10.94
2019-04-22T06:17:37.571Z,10.94
2019-04-22T06:18:08.870Z,10.94
2019-04-22T06:18:33.102Z,10.94
2019-04-22T06:19:06.971Z,11
2019-04-22T06:19:37.828Z,11.06
2019-04-22T06:20:01.993Z,11.06
2019-04-22T06:20:36.745Z,11.12
2019-04-22T06:21:05.079Z,11.19
2019-04-22T06:21:26.310Z,11.19
2019-04-22T06:22:04.057Z,11.25
2019-04-22T06:22:56.579Z,11.31
2019-04-22T06:24:10.439Z,11.38
2019-04-22T06:24:27.107Z,11.38
2019-04-22T06:25:08.846Z,11.44
2019-04-22T06:25:49.043Z,11.44
2019-04-22T06:26:09.509Z,11.44
2019-04-22T06:27:27.596Z,11.5
2019-04-22T06:28:13.106Z,11.56
2019-04-22T06:28:40.411Z,11.63
2019-04-22T06:29:09.044Z,11.69
2019-04-22T06:29:29.675Z,11.69
2019-04-22T06:30:04.058Z,11.75
2019-04-22T06:30:34.096Z,11.75
2019-04-22T06:31:32.009Z,11.81
2019-04-22T06:32:22.898Z,11.81
2019-04-22T06:32:30.846Z,11.88
2019-04-22T06:33:09.273Z,11.94
2019-04-22T06:33:33.713Z,11.94
2019-04-22T06:34:10.149Z,12
2019-04-22T06:34:35.546Z,12
2019-04-22T06:35:09.030Z,11.94
2019-04-22T06:35:36.077Z,12
2019-04-22T06:36:28.863Z,12.06
2019-04-22T06:37:43.108Z,12.13
2019-04-22T06:38:24.189Z,12.13
2019-04-22T06:38:33.855Z,12.19
2019-04-22T06:39:07.230Z,12.19
2019-04-22T06:39:27.663Z,12.25
2019-04-22T06:40:05.815Z,12.25
2019-04-22T06:40:25.688Z,12.31
2019-04-22T06:41:08.477Z,12.37
2019-04-22T06:42:07.705Z,12.37
2019-04-22T06:42:34.645Z,12.37
2019-04-22T06:42:57.411Z,12.44
2019-04-22T06:43:34.778Z,12.44
2019-04-22T06:44:10.614Z,12.5
2019-04-22T06:45:33.607Z,12.56
2019-04-22T06:46:00.489Z,12.56
2019-04-22T06:47:04.776Z,12.63
2019-04-22T06:48:06.589Z,12.69
2019-04-22T06:49:34.804Z,12.75
2019-04-22T06:50:30.081Z,12.81
2019-04-22T06:50:52.622Z,12.81
2019-04-22T06:52:00.948Z,12.88
2019-04-22T06:52:20.502Z,12.94
2019-04-22T06:53:01.425Z,13
2019-04-22T06:53:29.536Z,13.06
2019-04-22T06:54:27.435Z,13.19
2019-04-22T06:54:58.896Z,13.31
2019-04-22T06:55:26.980Z,13.31
2019-04-22T06:55:51.115Z,13.38
2019-04-22T06:56:34.576Z,13.38
2019-04-22T06:57:36.160Z,13.5
2019-04-22T06:58:04.390Z,13.56
2019-04-22T06:58:34.449Z,13.62
2019-04-22T06:59:06.471Z,13.62
2019-04-22T06:59:30.998Z,13.69
2019-04-22T07:00:10.178Z,13.69
2019-04-22T07:00:36.450Z,13.69
2019-04-22T07:00:51.832Z,13.69
2019-04-22T07:01:35.347Z,13.75
2019-04-22T07:03:28.320Z,13.88
2019-04-22T07:03:41.329Z,13.88
2019-04-22T07:04:33.458Z,14
2019-04-22T07:05:41.030Z,14.06
2019-04-22T07:06:07.218Z,14.06
2019-04-22T07:06:25.948Z,14.06
2019-04-22T07:07:06.316Z,14.13
2019-04-22T07:07:30.970Z,14.19
2019-04-22T07:08:15.651Z,14.13
2019-04-22T07:09:40.951Z,14.25
2019-04-22T07:10:06.228Z,14.19
2019-04-22T07:10:41.862Z,14.19
2019-04-22T07:11:01.285Z,14.19
2019-04-22T07:12:04.383Z,14.19
2019-04-22T07:12:34.231Z,14.19
2019-04-22T07:13:33.951Z,14.31
2019-04-22T07:14:04.035Z,14.38
2019-04-22T07:14:34.957Z,14.38
2019-04-22T07:15:41.856Z,14.5
2019-04-22T07:16:03.449Z,14.5
2019-04-22T07:16:37.607Z,14.56
2019-04-22T07:16:55.720Z,14.56
2019-04-22T07:17:42.016Z,14.56
2019-04-22T07:18:10.964Z,14.56
2019-04-22T07:19:07.185Z,14.63
2019-04-22T07:19:27.454Z,14.63
2019-04-22T07:20:03.550Z,14.56
2019-04-22T07:20:36.144Z,14.63
2019-04-22T07:21:57.007Z,14.63
2019-04-22T07:22:27.579Z,14.63
2019-04-22T07:23:07.820Z,14.63
2019-04-22T07:24:19.875Z,14.69
2019-04-22T07:24:34.113Z,14.75
2019-04-22T07:25:02.979Z,14.75
2019-04-22T07:25:34.414Z,14.75
2019-04-22T07:26:04.086Z,14.69
2019-04-22T07:26:57.397Z,14.69
2019-04-22T07:27:34.051Z,14.75
2019-04-22T07:28:04.913Z,14.81
2019-04-22T07:28:28.811Z,14.81
2019-04-22T07:30:01.320Z,14.94
2019-04-22T07:30:26.054Z,15
2019-04-22T07:30:57.500Z,14.94
2019-04-22T07:31:33.905Z,15
2019-04-22T07:32:57.710Z,15
2019-04-22T07:33:11.225Z,15
2019-04-22T07:33:32.211Z,15.06
2019-04-22T07:34:26.316Z,15
2019-04-22T07:34:58.080Z,15.06
2019-04-22T07:35:45.779Z,15.13
2019-04-22T07:36:29.534Z,15.13
2019-04-22T07:36:53.175Z,15.25
2019-04-22T07:36:58.240Z,15.25
2019-04-22T07:37:41.425Z,15.31
2019-04-22T07:37:53.679Z,15.31
2019-04-22T07:38:29.442Z,15.31
2019-04-22T07:39:09.529Z,15.31
2019-04-22T07:39:34.692Z,15.31
2019-04-22T07:39:55.954Z,15.31
2019-04-22T07:40:38.619Z,15.31
2019-04-22T07:41:37.084Z,15.38
2019-04-22T07:42:05.074Z,15.38
2019-04-22T07:43:51.301Z,15.38
2019-04-22T07:44:30.705Z,15.44
2019-04-22T07:44:54.621Z,15.44
2019-04-22T07:45:35.727Z,15.56
2019-04-22T07:46:06.671Z,15.56
2019-04-22T07:46:25.763Z,15.56
2019-04-22T07:47:13.292Z,15.5
2019-04-22T07:47:37.282Z,15.5
2019-04-22T07:48:18.644Z,15.56
2019-04-22T07:48:44.596Z,15.56
2019-04-22T07:48:57.278Z,15.63
2019-04-22T07:49:37.622Z,15.63
2019-04-22T07:50:48.820Z,15.63
2019-04-22T07:52:33.264Z,15.75
2019-04-22T07:52:55.780Z,15.75
2019-04-22T07:53:33.296Z,15.75
2019-04-22T07:55:00.589Z,15.75
2019-04-22T07:55:32.025Z,15.81
2019-04-22T07:56:04.768Z,15.75
2019-04-22T07:56:36.177Z,15.81
2019-04-22T07:57:27.284Z,15.88
2019-04-22T07:57:58.086Z,15.94
2019-04-22T07:59:09.030Z,15.94
2019-04-22T07:59:33.711Z,15.88
2019-04-22T08:00:08.566Z,15.94
2019-04-22T08:01:01.792Z,16
2019-04-22T08:01:26.248Z,16.06
2019-04-22T08:02:08.747Z,16.06
2019-04-22T08:03:43.735Z,16.19
2019-04-22T08:04:34.270Z,16.25
2019-04-22T08:05:12.041Z,16.31
2019-04-22T08:05:43.890Z,16.37
2019-04-22T08:06:11.502Z,16.37
2019-04-22T08:06:35.982Z,16.37
2019-04-22T08:07:29.631Z,16.37
2019-04-22T08:08:12.901Z,16.37
2019-04-22T08:08:35.390Z,16.44
2019-04-22T08:09:44.257Z,16.37
2019-04-22T08:10:42.917Z,16.37
2019-04-22T08:11:07.911Z,16.37
2019-04-22T08:12:38.382Z,16.56
2019-04-22T08:13:03.509Z,16.62
2019-04-22T08:13:34.018Z,16.69
2019-04-22T08:14:06.670Z,16.69
2019-04-22T08:14:40.147Z,16.75
2019-04-22T08:15:05.299Z,16.69
2019-04-22T08:16:09.632Z,16.81
2019-04-22T08:16:36.411Z,16.81
2019-04-22T08:17:22.535Z,16.69
2019-04-22T08:17:44.611Z,16.75
2019-04-22T08:18:08.435Z,16.75
2019-04-22T08:18:27.390Z,16.87
2019-04-22T08:19:08.371Z,16.94
2019-04-22T08:19:41.537Z,17
2019-04-22T08:20:08.211Z,17
2019-04-22T08:20:28.361Z,16.94
2019-04-22T08:21:04.070Z,17
2019-04-22T08:21:38.047Z,17.06
2019-04-22T08:22:25.323Z,17.19
2019-04-22T08:23:41.497Z,17.19
2019-04-22T08:24:05.807Z,17.25
2019-04-22T08:24:41.632Z,17.19
2019-04-22T08:25:00.118Z,17.06
2019-04-22T08:25:38.669Z,17.12
2019-04-22T08:26:04.655Z,17.06
2019-04-22T08:26:37.779Z,17.19
2019-04-22T08:27:34.964Z,17.31
2019-04-22T08:28:37.711Z,17.25
2019-04-22T08:29:44.906Z,17.37
2019-04-22T08:31:07.478Z,17.56
2019-04-22T08:32:04.466Z,17.62
2019-04-22T08:33:09.198Z,17.44
2019-04-22T08:33:28.686Z,17.44